createdAt,value
2022-11-23T00:01:24.067Z,7.28
2022-11-23T00:03:54.538Z,7.30
2022-11-23T00:06:22.919Z,7.27
2022-11-23T00:08:50.945Z,7.31
2022-11-23T00:11:19.161Z,7.38
2022-11-23T00:13:47.379Z,7.07
2022-11-23T00:16:20.026Z,7.33
2022-11-23T00:18:47.669Z,7.43
2022-11-23T00:21:21.045Z,7.54
2022-11-23T00:23:48.995Z,7.46
2022-11-23T00:26:17.132Z,7.61
2022-11-23T00:28:44.376Z,7.53
2022-11-23T00:31:14.349Z,7.53
2022-11-23T00:33:42.276Z,7.49
2022-11-23T00:36:15.417Z,7.48
2022-11-23T00:38:45.151Z,7.54
2022-11-23T00:41:19.106Z,7.39
2022-11-23T00:43:46.363Z,7.40
2022-11-23T00:46:23.111Z,7.44
2022-11-23T00:48:52.385Z,7.38
2022-11-23T00:51:21.854Z,7.44
2022-11-23T00:53:49.752Z,7.41
2022-11-23T00:56:18.426Z,7.35
2022-11-23T00:58:52.907Z,7.35
2022-11-23T01:01:29.369Z,7.31
2022-11-23T01:04:00.079Z,7.36
2022-11-23T01:06:35.593Z,7.26
2022-11-23T01:09:16.094Z,7.30
2022-11-23T01:11:43.614Z,7.22
2022-11-23T01:14:11.569Z,7.29
2022-11-23T01:16:41.440Z,7.31
2022-11-23T01:19:14.353Z,7.34
2022-11-23T01:21:41.990Z,7.29
2022-11-23T01:24:13.583Z,7.32
2022-11-23T01:26:41.455Z,7.30
2022-11-23T01:29:08.498Z,7.18
2022-11-23T01:31:43.187Z,7.35
2022-11-23T01:34:15.758Z,7.27
2022-11-23T01:36:43.533Z,7.31
2022-11-23T01:39:11.069Z,7.41
2022-11-23T01:41:41.360Z,7.33
2022-11-23T01:44:27.662Z,7.51
2022-11-23T01:46:57.907Z,7.49
2022-11-23T01:49:27.468Z,7.40
2022-11-23T01:51:57.652Z,7.52
2022-11-23T01:54:46.599Z,7.41
2022-11-23T01:57:28.145Z,7.41
2022-11-23T01:59:56.387Z,7.44
2022-11-23T02:02:25.218Z,7.35
2022-11-23T02:04:54.269Z,7.13
2022-11-23T02:07:24.358Z,7.39
2022-11-23T02:09:52.418Z,7.44
2022-11-23T02:12:19.329Z,7.35
2022-11-23T02:14:46.705Z,7.44
2022-11-23T02:17:14.156Z,7.42
2022-11-23T02:20:06.440Z,7.43
2022-11-23T02:22:58.755Z,7.52
2022-11-23T02:25:33.462Z,7.35
2022-11-23T02:28:01.656Z,7.55
2022-11-23T02:30:30.792Z,7.53
2022-11-23T02:32:57.725Z,7.60
2022-11-23T02:35:25.668Z,7.59
2022-11-23T02:37:53.628Z,7.42
2022-11-23T02:40:31.667Z,7.54
2022-11-23T02:42:59.621Z,7.43
2022-11-23T02:45:39.682Z,7.38
2022-11-23T02:48:06.796Z,7.41
2022-11-23T02:50:35.063Z,7.49
2022-11-23T02:53:02.360Z,7.45
2022-11-23T02:55:31.581Z,7.41
2022-11-23T02:58:01.025Z,7.39
2022-11-23T03:00:29.015Z,7.34
2022-11-23T03:03:00.467Z,7.37
2022-11-23T03:05:28.005Z,7.38
2022-11-23T03:07:54.878Z,7.44
2022-11-23T03:10:22.030Z,7.34
2022-11-23T03:12:55.574Z,7.43
2022-11-23T03:15:24.082Z,7.16
2022-11-23T03:17:52.689Z,7.42
2022-11-23T03:20:20.929Z,7.38
2022-11-23T03:22:50.217Z,7.45
2022-11-23T03:25:19.094Z,7.32
2022-11-23T03:27:49.572Z,7.38
2022-11-23T03:30:16.611Z,7.30
2022-11-23T03:32:43.943Z,7.28
2022-11-23T03:35:11.092Z,7.29
2022-11-23T03:37:53.987Z,7.26
2022-11-23T03:40:21.033Z,7.29
2022-11-23T03:43:14.560Z,7.21
2022-11-23T03:45:42.268Z,7.18
2022-11-23T03:48:09.388Z,7.24
2022-11-23T03:50:36.358Z,7.20
2022-11-23T03:53:03.719Z,7.23
2022-11-23T03:55:30.563Z,7.10
2022-11-23T03:57:59.862Z,7.32
2022-11-23T04:00:31.242Z,7.29
2022-11-23T04:02:58.899Z,7.23
2022-11-23T04:05:51.975Z,7.17
2022-11-23T04:08:48.110Z,7.20
2022-11-23T04:11:23.301Z,7.21
2022-11-23T04:13:51.366Z,7.28
2022-11-23T04:16:19.562Z,7.41
2022-11-23T04:18:46.826Z,7.26
2022-11-23T04:21:13.728Z,7.21
2022-11-23T04:23:40.898Z,7.16
2022-11-23T04:26:11.566Z,7.17
2022-11-23T04:28:42.187Z,7.13
2022-11-23T04:31:09.490Z,7.15
2022-11-23T04:33:52.422Z,6.98
2022-11-23T04:36:20.660Z,7.14
2022-11-23T04:38:47.888Z,7.03
2022-11-23T04:41:17.847Z,7.14
2022-11-23T04:43:45.402Z,7.03
2022-11-23T04:46:12.366Z,7.03
2022-11-23T04:48:39.644Z,7.16
2022-11-23T04:51:09.027Z,7.25
2022-11-23T04:53:38.793Z,7.19
2022-11-23T04:56:06.446Z,7.30
2022-11-23T04:58:37.704Z,7.21
2022-11-23T05:01:06.516Z,7.28
2022-11-23T05:03:39.632Z,7.31
2022-11-23T05:06:09.902Z,7.20
2022-11-23T05:08:42.550Z,7.35
2022-11-23T05:11:33.349Z,7.32
2022-11-23T05:14:03.450Z,7.16
2022-11-23T05:16:32.206Z,7.20
2022-11-23T05:18:59.328Z,7.23
2022-11-23T05:21:27.056Z,7.30
2022-11-23T05:23:55.073Z,7.35
2022-11-23T05:26:22.390Z,7.30
2022-11-23T05:28:49.614Z,7.23
2022-11-23T05:31:16.675Z,7.27
2022-11-23T05:33:46.410Z,7.24
2022-11-23T05:36:16.088Z,7.19
2022-11-23T05:38:43.291Z,7.16
2022-11-23T05:41:20.168Z,7.12
2022-11-23T05:43:50.600Z,7.10
2022-11-23T05:46:22.347Z,7.09
2022-11-23T05:48:49.295Z,7.28
2022-11-23T05:51:16.470Z,7.32
2022-11-23T05:53:45.154Z,7.23
2022-11-23T05:56:20.069Z,7.36
2022-11-23T05:59:16.413Z,7.37
2022-11-23T06:01:48.782Z,7.43
2022-11-23T06:04:23.876Z,7.34
2022-11-23T06:06:50.917Z,7.34
2022-11-23T06:09:17.823Z,7.35
2022-11-23T06:11:49.406Z,7.30
2022-11-23T06:14:21.541Z,7.27
2022-11-23T06:16:50.950Z,7.29
2022-11-23T06:19:30.716Z,7.42
2022-11-23T06:21:58.847Z,6.54
2022-11-23T06:24:29.239Z,7.37
2022-11-23T06:27:18.346Z,7.44
2022-11-23T06:29:47.859Z,7.45
2022-11-23T06:32:16.010Z,7.53
2022-11-23T06:34:43.258Z,7.53
2022-11-23T06:37:11.021Z,7.61
2022-11-23T06:39:38.152Z,7.77
2022-11-23T06:42:31.371Z,7.79
2022-11-23T06:44:54.186Z,7.96
2022-11-23T06:47:26.217Z,7.88
2022-11-23T06:49:53.636Z,7.92
2022-11-23T06:52:26.945Z,7.92
2022-11-23T06:54:54.640Z,8.05
2022-11-23T06:57:23.757Z,8.07
2022-11-23T06:59:51.343Z,8.05
2022-11-23T07:02:24.017Z,8.06
2022-11-23T07:04:52.601Z,8.39
2022-11-23T07:07:20.127Z,8.23
2022-11-23T07:09:57.403Z,8.26
2022-11-23T07:12:34.448Z,8.25
2022-11-23T07:15:01.964Z,8.31
2022-11-23T07:17:39.097Z,8.47
2022-11-23T07:20:09.118Z,8.35
2022-11-23T07:22:37.563Z,8.33
2022-11-23T07:25:05.978Z,8.47
2022-11-23T07:27:32.949Z,8.47
2022-11-23T07:30:01.915Z,8.49
2022-11-23T07:32:31.843Z,8.42
2022-11-23T07:34:59.047Z,8.36
2022-11-23T07:37:27.955Z,8.46
2022-11-23T07:39:58.139Z,8.66
2022-11-23T07:42:38.351Z,8.77
2022-11-23T07:45:10.972Z,8.76
2022-11-23T07:47:41.902Z,8.69
2022-11-23T07:50:11.267Z,8.79
2022-11-23T07:52:39.425Z,8.75
2022-11-23T07:55:06.944Z,8.82
2022-11-23T07:57:33.788Z,8.71
2022-11-23T08:00:00.687Z,8.68
2022-11-23T08:02:27.687Z,8.73
2022-11-23T08:04:55.534Z,8.85
2022-11-23T08:07:22.980Z,8.82
2022-11-23T08:09:50.518Z,8.76
2022-11-23T08:12:17.394Z,8.87
2022-11-23T08:14:44.273Z,8.83
2022-11-23T08:17:11.500Z,8.84
2022-11-23T08:19:38.579Z,8.94
2022-11-23T08:22:05.422Z,9.10
2022-11-23T08:24:32.711Z,9.18
2022-11-23T08:26:59.749Z,9.35
2022-11-23T08:29:26.632Z,9.30
2022-11-23T08:31:53.694Z,9.29
2022-11-23T08:34:20.665Z,9.10
2022-11-23T08:36:48.300Z,9.17
2022-11-23T08:39:16.447Z,8.89
2022-11-23T08:41:43.592Z,9.39
2022-11-23T08:44:11.385Z,9.43
2022-11-23T08:46:39.019Z,9.59
2022-11-23T08:49:07.351Z,9.65
2022-11-23T08:51:34.225Z,9.57
2022-11-23T08:54:01.513Z,9.65
2022-11-23T08:56:28.479Z,9.82
2022-11-23T08:58:55.563Z,9.87
2022-11-23T09:01:22.765Z,9.75
2022-11-23T09:03:50.131Z,9.94
2022-11-23T09:06:17.149Z,9.95
2022-11-23T09:08:44.085Z,9.93
2022-11-23T09:11:13.410Z,10.07
2022-11-23T09:13:40.731Z,10.20
2022-11-23T09:16:08.483Z,10.14
2022-11-23T09:18:36.721Z,10.16
2022-11-23T09:21:05.945Z,10.19
2022-11-23T09:23:33.290Z,10.29
2022-11-23T09:26:01.838Z,10.50
2022-11-23T09:28:29.224Z,10.51
2022-11-23T09:30:57.373Z,10.27
2022-11-23T09:33:25.646Z,10.42
2022-11-23T09:36:00.902Z,10.41
2022-11-23T09:38:44.802Z,10.42
2022-11-23T09:41:21.647Z,10.44
2022-11-23T09:43:51.448Z,10.59
2022-11-23T09:46:55.220Z,10.60
2022-11-23T09:49:26.652Z,10.57
2022-11-23T09:51:57.193Z,10.62
2022-11-23T09:54:38.205Z,10.68
2022-11-23T09:57:05.822Z,10.73
2022-11-23T09:59:41.966Z,10.71
2022-11-23T10:02:20.447Z,10.86
2022-11-23T10:04:47.869Z,10.82
2022-11-23T10:07:17.859Z,10.82
2022-11-23T10:10:07.042Z,10.81
2022-11-23T10:12:57.744Z,10.98
2022-11-23T10:15:32.335Z,11.04
2022-11-23T10:18:20.291Z,11.05
2022-11-23T10:20:53.891Z,11.06
2022-11-23T10:23:50.736Z,11.04
2022-11-23T10:26:20.349Z,11.08
2022-11-23T10:28:47.733Z,11.12
2022-11-23T10:31:20.130Z,11.13
2022-11-23T10:33:55.585Z,10.99
2022-11-23T10:36:23.380Z,10.92
2022-11-23T10:38:57.301Z,11.02
2022-11-23T10:41:24.711Z,10.98
2022-11-23T10:44:06.960Z,11.07
2022-11-23T10:46:34.116Z,11.17
2022-11-23T10:49:24.422Z,11.21
2022-11-23T10:51:52.670Z,11.20
2022-11-23T10:54:19.933Z,11.36
2022-11-23T10:56:49.362Z,11.42
2022-11-23T10:59:26.550Z,11.49
2022-11-23T11:02:16.186Z,11.44
2022-11-23T11:04:43.547Z,11.51
2022-11-23T11:07:22.734Z,11.50
2022-11-23T11:09:59.769Z,11.58
2022-11-23T11:12:29.401Z,11.55
2022-11-23T11:15:05.245Z,11.61
2022-11-23T11:17:39.898Z,11.44
2022-11-23T11:20:31.599Z,11.70
2022-11-23T11:23:04.691Z,11.76
2022-11-23T11:25:36.204Z,11.86
2022-11-23T11:28:07.018Z,12.02
2022-11-23T11:30:57.230Z,12.15
2022-11-23T11:33:38.115Z,12.15
2022-11-23T11:36:08.014Z,12.35
2022-11-23T11:38:37.569Z,12.52
2022-11-23T11:41:12.134Z,12.78
2022-11-23T11:43:47.181Z,12.60
2022-11-23T11:46:29.149Z,12.90
2022-11-23T11:49:33.908Z,12.96
2022-11-23T11:52:25.524Z,12.99
2022-11-23T11:55:06.856Z,13.05
2022-11-23T11:57:44.306Z,13.16
2022-11-23T12:00:17.702Z,13.28
2022-11-23T12:03:03.879Z,13.29
2022-11-23T12:05:40.311Z,13.21
2022-11-23T12:08:10.687Z,13.19
2022-11-23T12:10:59.155Z,13.23
2022-11-23T12:13:33.026Z,13.26
2022-11-23T12:16:26.415Z,13.48
2022-11-23T12:19:02.011Z,13.56
2022-11-23T12:21:54.176Z,13.61
2022-11-23T12:24:50.389Z,13.68
2022-11-23T12:27:47.971Z,13.62
2022-11-23T12:30:21.693Z,13.67
2022-11-23T12:33:00.690Z,13.80
2022-11-23T12:35:33.470Z,13.72
2022-11-23T12:38:14.270Z,13.77
2022-11-23T12:40:55.781Z,13.76
2022-11-23T12:43:33.537Z,13.70
2022-11-23T12:46:42.357Z,13.91
2022-11-23T12:49:21.589Z,13.91
2022-11-23T12:52:13.182Z,13.84
2022-11-23T12:54:49.274Z,14.02
2022-11-23T12:57:25.076Z,13.88
2022-11-23T13:00:15.117Z,13.85
2022-11-23T13:02:57.418Z,13.80
2022-11-23T13:05:33.471Z,13.77
2022-11-23T13:08:27.477Z,13.85
2022-11-23T13:10:57.534Z,13.81
2022-11-23T13:13:48.817Z,13.63
2022-11-23T13:16:25.741Z,13.67
2022-11-23T13:19:15.684Z,13.69
2022-11-23T13:21:45.018Z,13.68
2022-11-23T13:24:24.191Z,13.66
2022-11-23T13:27:29.842Z,13.48
2022-11-23T13:29:58.829Z,13.51
2022-11-23T13:32:46.129Z,13.42
2022-11-23T13:35:16.042Z,13.39
2022-11-23T13:37:58.357Z,13.35
2022-11-23T13:40:27.909Z,13.24
2022-11-23T13:42:59.807Z,13.02
2022-11-23T13:45:37.739Z,13.08
2022-11-23T13:48:04.979Z,13.16
2022-11-23T13:50:33.002Z,13.11
2022-11-23T13:53:00.663Z,13.11
2022-11-23T13:55:36.904Z,13.06
2022-11-23T13:58:25.364Z,13.05
2022-11-23T14:00:55.594Z,13.08
2022-11-23T14:03:44.395Z,13.08
2022-11-23T14:06:41.648Z,13.06
2022-11-23T14:09:08.684Z,13.17
2022-11-23T14:11:48.694Z,13.04
2022-11-23T14:14:31.661Z,12.90
2022-11-23T14:17:40.590Z,12.76
2022-11-23T14:20:16.621Z,12.72
2022-11-23T14:22:53.469Z,12.68
2022-11-23T14:25:39.030Z,12.62
2022-11-23T14:28:38.593Z,12.64
2022-11-23T14:31:43.596Z,12.69
2022-11-23T14:34:22.366Z,12.53
2022-11-23T14:37:13.880Z,12.55
2022-11-23T14:39:59.335Z,12.36
2022-11-23T14:42:29.465Z,12.28
2022-11-23T14:45:01.633Z,12.25
2022-11-23T14:47:30.843Z,12.12
2022-11-23T14:49:58.384Z,12.02
2022-11-23T14:52:31.440Z,11.97
2022-11-23T14:55:03.866Z,11.93
2022-11-23T14:57:45.991Z,11.87
2022-11-23T15:00:23.278Z,11.93
2022-11-23T15:02:52.993Z,11.83
2022-11-23T15:05:33.491Z,11.72
2022-11-23T15:08:12.833Z,11.73
2022-11-23T15:10:39.841Z,11.72
2022-11-23T15:13:22.733Z,11.57
2022-11-23T15:15:55.924Z,11.51
2022-11-23T15:18:35.284Z,11.49
2022-11-23T15:21:04.563Z,11.40
2022-11-23T15:23:40.199Z,11.39
2022-11-23T15:26:28.624Z,11.33
2022-11-23T15:29:01.022Z,11.35
2022-11-23T15:31:36.507Z,11.28
2022-11-23T15:34:11.328Z,11.26
2022-11-23T15:36:39.852Z,11.23
2022-11-23T15:39:08.758Z,11.15
2022-11-23T15:41:40.198Z,11.06
2022-11-23T15:44:24.999Z,11.10
2022-11-23T15:47:07.876Z,11.16
2022-11-23T15:49:39.431Z,11.06
2022-11-23T15:52:06.730Z,10.95
2022-11-23T15:54:38.300Z,10.86
2022-11-23T15:57:20.441Z,10.96
2022-11-23T15:59:56.234Z,10.90
2022-11-23T16:02:26.044Z,10.92
2022-11-23T16:05:14.046Z,10.95
2022-11-23T16:07:57.796Z,11.03
2022-11-23T16:10:27.920Z,11.14
2022-11-23T16:12:57.338Z,11.16
2022-11-23T16:15:40.931Z,11.25
2022-11-23T16:18:13.732Z,11.25
2022-11-23T16:20:45.442Z,11.15
2022-11-23T16:23:20.188Z,11.15
2022-11-23T16:25:54.962Z,11.04
2022-11-23T16:28:30.891Z,11.07
2022-11-23T16:30:58.641Z,11.15
2022-11-23T16:33:26.398Z,11.21
2022-11-23T16:35:54.184Z,11.14
2022-11-23T16:38:21.942Z,11.06
2022-11-23T16:40:48.829Z,11.09
2022-11-23T16:43:17.458Z,11.19
2022-11-23T16:45:48.909Z,11.18
2022-11-23T16:48:25.496Z,11.13
2022-11-23T16:50:54.588Z,11.00
2022-11-23T16:53:21.733Z,11.06
2022-11-23T16:55:53.097Z,11.02
2022-11-23T16:58:21.269Z,10.94
2022-11-23T17:00:49.309Z,11.00
2022-11-23T17:03:21.286Z,10.84
2022-11-23T17:05:48.941Z,10.80
2022-11-23T17:08:23.034Z,10.76
2022-11-23T17:10:51.833Z,10.77
2022-11-23T17:13:29.059Z,10.86
2022-11-23T17:15:56.634Z,10.77
2022-11-23T17:18:23.549Z,10.78
2022-11-23T17:20:50.492Z,10.84
2022-11-23T17:23:17.726Z,10.88
2022-11-23T17:25:44.771Z,10.79
2022-11-23T17:28:21.277Z,10.79
2022-11-23T17:30:49.207Z,10.69
2022-11-23T17:33:16.497Z,10.72
2022-11-23T17:35:43.716Z,10.75
2022-11-23T17:38:16.749Z,10.79
2022-11-23T17:40:44.167Z,10.69
2022-11-23T17:43:14.830Z,10.52
2022-11-23T17:45:43.927Z,10.72
2022-11-23T17:48:16.065Z,10.54
2022-11-23T17:50:43.037Z,10.64
2022-11-23T17:53:11.233Z,10.87
2022-11-23T17:55:38.487Z,10.84
2022-11-23T17:58:05.889Z,10.87
2022-11-23T18:00:33.357Z,10.88
2022-11-23T18:03:00.280Z,10.80
2022-11-23T18:05:27.485Z,10.93
2022-11-23T18:07:54.677Z,10.99
2022-11-23T18:10:22.669Z,10.99
2022-11-23T18:12:49.676Z,10.79
2022-11-23T18:15:16.945Z,10.64
2022-11-23T18:17:44.054Z,10.76
2022-11-23T18:20:11.737Z,10.71
2022-11-23T18:22:40.027Z,10.66
2022-11-23T18:25:07.537Z,10.63
2022-11-23T18:27:34.558Z,10.55
2022-11-23T18:30:01.908Z,10.45
2022-11-23T18:32:31.292Z,10.36
2022-11-23T18:34:58.205Z,10.35
2022-11-23T18:37:25.367Z,10.20
2022-11-23T18:39:52.438Z,10.34
2022-11-23T18:42:20.026Z,10.35
2022-11-23T18:44:47.173Z,10.26
2022-11-23T18:47:14.017Z,10.28
2022-11-23T18:49:40.982Z,10.18
2022-11-23T18:52:09.194Z,10.08
2022-11-23T18:54:36.443Z,10.23
2022-11-23T18:57:03.645Z,10.20
2022-11-23T19:02:18.002Z,10.19
2022-11-23T19:04:45.474Z,10.17
2022-11-23T19:07:13.418Z,10.21
2022-11-23T19:09:40.689Z,10.17
2022-11-23T19:12:08.255Z,10.16
2022-11-23T19:14:35.438Z,10.19
2022-11-23T19:17:02.833Z,10.08
2022-11-23T19:19:30.298Z,10.11
2022-11-23T19:21:57.323Z,10.05
2022-11-23T19:24:24.227Z,10.18
2022-11-23T19:26:51.195Z,10.16
2022-11-23T19:29:23.648Z,9.94
2022-11-23T19:31:54.660Z,10.14
2022-11-23T19:34:22.022Z,10.31
2022-11-23T19:36:48.937Z,10.03
2022-11-23T19:39:16.155Z,10.07
2022-11-23T19:41:43.581Z,9.97
2022-11-23T19:44:10.542Z,9.97
2022-11-23T19:46:38.195Z,9.93
2022-11-23T19:49:05.203Z,9.84
2022-11-23T19:51:32.356Z,9.87
2022-11-23T19:54:01.100Z,9.84
2022-11-23T19:56:29.470Z,9.74
2022-11-23T19:58:58.843Z,9.81
2022-11-23T20:01:28.882Z,9.86
2022-11-23T20:03:57.915Z,9.81
2022-11-23T20:06:27.121Z,9.77
2022-11-23T20:08:55.193Z,9.80
2022-11-23T20:11:22.546Z,9.78
2022-11-23T20:13:49.835Z,9.66
2022-11-23T20:16:19.564Z,9.52
2022-11-23T20:18:49.154Z,9.61
2022-11-23T20:21:18.337Z,8.83
2022-11-23T20:23:46.496Z,9.42
2022-11-23T20:26:15.853Z,9.42
2022-11-23T20:28:43.366Z,9.34
2022-11-23T20:31:20.641Z,9.36
2022-11-23T20:33:50.684Z,9.11
2022-11-23T20:36:19.702Z,9.36
2022-11-23T20:38:47.317Z,9.34
2022-11-23T20:41:15.485Z,9.39
2022-11-23T20:43:44.212Z,9.24
2022-11-23T20:46:12.083Z,9.25
2022-11-23T20:48:41.222Z,9.25
2022-11-23T20:51:10.817Z,9.25
2022-11-23T20:53:37.937Z,9.21
2022-11-23T20:56:07.909Z,9.19
2022-11-23T20:58:35.483Z,9.09
2022-11-23T21:01:14.119Z,9.08
2022-11-23T21:03:42.823Z,9.23
2022-11-23T21:06:14.106Z,9.11
2022-11-23T21:08:42.402Z,9.30
2022-11-23T21:11:41.531Z,9.28
2022-11-23T21:14:17.971Z,9.27
2022-11-23T21:16:55.796Z,9.24
2022-11-23T21:19:50.316Z,9.18
2022-11-23T21:22:19.134Z,9.20
2022-11-23T21:24:46.284Z,9.23
2022-11-23T21:27:13.729Z,9.18
2022-11-23T21:29:47.984Z,9.23
2022-11-23T21:32:15.162Z,9.18
2022-11-23T21:34:42.057Z,9.12
2022-11-23T21:37:11.739Z,9.28
2022-11-23T21:39:39.530Z,9.37
2022-11-23T21:42:07.247Z,9.28
2022-11-23T21:44:34.872Z,9.04
2022-11-23T21:47:02.586Z,9.22
2022-11-23T21:49:32.311Z,9.39
2022-11-23T21:51:59.438Z,9.45
2022-11-23T21:54:27.131Z,9.29
2022-11-23T21:56:54.448Z,9.26
2022-11-23T21:59:22.661Z,9.26
2022-11-23T22:01:49.637Z,9.17
2022-11-23T22:04:17.406Z,9.22
2022-11-23T22:06:45.579Z,8.93
2022-11-23T22:09:13.449Z,8.97
2022-11-23T22:11:42.944Z,8.93
2022-11-23T22:14:15.755Z,8.78
2022-11-23T22:16:44.756Z,8.80
2022-11-23T22:19:13.825Z,8.78
2022-11-23T22:21:42.301Z,8.62
2022-11-23T22:24:15.502Z,8.51
2022-11-23T22:26:43.422Z,8.46
2022-11-23T22:29:10.636Z,8.45
2022-11-23T22:31:38.203Z,8.35
2022-11-23T22:34:08.697Z,8.32
2022-11-23T22:36:36.177Z,7.76
2022-11-23T22:39:05.805Z,8.12
2022-11-23T22:41:37.241Z,8.05
2022-11-23T22:44:06.695Z,8.09
2022-11-23T22:46:33.718Z,7.88
2022-11-23T22:49:01.923Z,7.73
2022-11-23T22:51:29.791Z,7.89
2022-11-23T22:53:58.870Z,7.71
2022-11-23T22:56:27.184Z,7.73
2022-11-23T22:58:54.433Z,7.74
2022-11-23T23:01:23.931Z,7.73
2022-11-23T23:03:55.768Z,7.67
2022-11-23T23:06:25.414Z,7.73
2022-11-23T23:08:55.732Z,7.67
2022-11-23T23:11:23.763Z,7.80
2022-11-23T23:13:50.770Z,7.74
2022-11-23T23:16:17.743Z,7.64
2022-11-23T23:18:45.250Z,7.49
2022-11-23T23:21:15.010Z,7.51
2022-11-23T23:23:50.170Z,7.36
2022-11-23T23:26:19.337Z,7.42
2022-11-23T23:28:46.519Z,7.41
2022-11-23T23:31:16.322Z,7.30
2022-11-23T23:33:45.336Z,7.34
2022-11-23T23:36:14.757Z,7.41
2022-11-23T23:38:41.694Z,7.41
2022-11-23T23:41:10.744Z,7.35
2022-11-23T23:43:37.839Z,7.25
2022-11-23T23:46:07.732Z,7.41
2022-11-23T23:48:38.893Z,7.50
2022-11-23T23:51:20.974Z,7.35
2022-11-23T23:53:48.573Z,7.29
2022-11-23T23:56:20.549Z,7.16
2022-11-23T23:58:48.462Z,6.85
